sensor_id;sensor_type;location;lat;lon;timestamp;temperature;humidity
8402;DHT22;4238;48.404;9.498;2022-12-20T00:00:51;1.80;99.90
8402;DHT22;4238;48.404;9.498;2022-12-20T00:03:18;1.80;99.90
8402;DHT22;4238;48.404;9.498;2022-12-20T00:05:46;1.80;99.90
8402;DHT22;4238;48.404;9.498;2022-12-20T00:08:14;1.70;99.90
8402;DHT22;4238;48.404;9.498;2022-12-20T00:10:42;1.70;99.90
8402;DHT22;4238;48.404;9.498;2022-12-20T00:13:10;1.70;99.90
8402;DHT22;4238;48.404;9.498;2022-12-20T00:15:37;1.70;99.90
8402;DHT22;4238;48.404;9.498;2022-12-20T00:18:05;1.60;99.90
8402;DHT22;4238;48.404;9.498;2022-12-20T00:20:32;1.60;99.90
8402;DHT22;4238;48.404;9.498;2022-12-20T00:23:01;1.60;99.90
8402;DHT22;4238;48.404;9.498;2022-12-20T00:25:28;1.60;99.90
8402;DHT22;4238;48.404;9.498;2022-12-20T00:27:55;1.70;99.90
8402;DHT22;4238;48.404;9.498;2022-12-20T00:30:22;1.60;99.90
8402;DHT22;4238;48.404;9.498;2022-12-20T00:32:49;1.60;99.90
8402;DHT22;4238;48.404;9.498;2022-12-20T00:35:16;1.50;99.90
8402;DHT22;4238;48.404;9.498;2022-12-20T00:37:42;1.60;99.90
8402;DHT22;4238;48.404;9.498;2022-12-20T00:40:11;1.50;99.90
8402;DHT22;4238;48.404;9.498;2022-12-20T00:42:38;1.60;99.90
8402;DHT22;4238;48.404;9.498;2022-12-20T00:45:06;1.60;99.90
8402;DHT22;4238;48.404;9.498;2022-12-20T00:47:33;1.70;99.90
8402;DHT22;4238;48.404;9.498;2022-12-20T00:50:00;1.60;99.90
8402;DHT22;4238;48.404;9.498;2022-12-20T00:52:27;1.50;99.90
8402;DHT22;4238;48.404;9.498;2022-12-20T00:54:53;1.40;99.90
8402;DHT22;4238;48.404;9.498;2022-12-20T00:57:22;1.40;99.90
8402;DHT22;4238;48.404;9.498;2022-12-20T00:59:49;1.30;99.90
8402;DHT22;4238;48.404;9.498;2022-12-20T01:02:16;1.30;99.90
8402;DHT22;4238;48.404;9.498;2022-12-20T01:04:43;1.30;99.90
8402;DHT22;4238;48.404;9.498;2022-12-20T01:07:10;1.40;99.90
8402;DHT22;4238;48.404;9.498;2022-12-20T01:09:37;1.30;99.90
8402;DHT22;4238;48.404;9.498;2022-12-20T01:12:04;1.30;99.90
8402;DHT22;4238;48.404;9.498;2022-12-20T01:14:32;1.30;99.90
8402;DHT22;4238;48.404;9.498;2022-12-20T01:16:59;1.30;99.90
8402;DHT22;4238;48.404;9.498;2022-12-20T01:19:26;1.20;99.90
8402;DHT22;4238;48.404;9.498;2022-12-20T01:21:53;1.20;99.90
8402;DHT22;4238;48.404;9.498;2022-12-20T01:24:20;1.10;99.90
8402;DHT22;4238;48.404;9.498;2022-12-20T01:26:47;1.10;99.90
8402;DHT22;4238;48.404;9.498;2022-12-20T01:29:14;1.00;99.90
8402;DHT22;4238;48.404;9.498;2022-12-20T01:31:42;1.00;99.90
8402;DHT22;4238;48.404;9.498;2022-12-20T01:34:10;1.00;99.90
8402;DHT22;4238;48.404;9.498;2022-12-20T01:36:37;0.90;99.90
8402;DHT22;4238;48.404;9.498;2022-12-20T01:39:05;1.00;99.90
8402;DHT22;4238;48.404;9.498;2022-12-20T01:41:35;1.00;99.90
8402;DHT22;4238;48.404;9.498;2022-12-20T01:44:05;1.00;99.90
8402;DHT22;4238;48.404;9.498;2022-12-20T01:46:33;1.00;99.90
8402;DHT22;4238;48.404;9.498;2022-12-20T01:49:05;1.00;99.90
8402;DHT22;4238;48.404;9.498;2022-12-20T01:51:37;1.00;99.90
8402;DHT22;4238;48.404;9.498;2022-12-20T01:54:08;1.00;99.90
8402;DHT22;4238;48.404;9.498;2022-12-20T01:56:38;1.00;99.90
8402;DHT22;4238;48.404;9.498;2022-12-20T01:59:07;1.10;99.90
8402;DHT22;4238;48.404;9.498;2022-12-20T02:01:34;1.20;99.90
8402;DHT22;4238;48.404;9.498;2022-12-20T02:04:02;1.20;99.90
8402;DHT22;4238;48.404;9.498;2022-12-20T02:06:29;1.20;99.90
8402;DHT22;4238;48.404;9.498;2022-12-20T02:08:58;1.10;99.90
8402;DHT22;4238;48.404;9.498;2022-12-20T02:11:50;1.10;99.90
8402;DHT22;4238;48.404;9.498;2022-12-20T02:14:35;1.20;99.90
8402;DHT22;4238;48.404;9.498;2022-12-20T02:17:12;1.20;99.90
8402;DHT22;4238;48.404;9.498;2022-12-20T02:20:00;1.20;99.90
8402;DHT22;4238;48.404;9.498;2022-12-20T02:22:40;1.20;99.90
8402;DHT22;4238;48.404;9.498;2022-12-20T02:25:26;1.30;99.90
8402;DHT22;4238;48.404;9.498;2022-12-20T02:28:00;1.30;99.90
8402;DHT22;4238;48.404;9.498;2022-12-20T02:30:33;1.30;99.90
8402;DHT22;4238;48.404;9.498;2022-12-20T02:33:02;1.20;99.90
8402;DHT22;4238;48.404;9.498;2022-12-20T02:35:32;1.20;99.90
8402;DHT22;4238;48.404;9.498;2022-12-20T02:38:01;1.20;99.90
8402;DHT22;4238;48.404;9.498;2022-12-20T02:40:42;1.20;99.90
8402;DHT22;4238;48.404;9.498;2022-12-20T02:43:09;1.20;99.90
8402;DHT22;4238;48.404;9.498;2022-12-20T02:45:54;1.30;99.90
8402;DHT22;4238;48.404;9.498;2022-12-20T02:48:26;1.30;99.90
8402;DHT22;4238;48.404;9.498;2022-12-20T02:50:57;1.50;99.90
8402;DHT22;4238;48.404;9.498;2022-12-20T02:53:25;1.50;99.90
8402;DHT22;4238;48.404;9.498;2022-12-20T02:56:00;1.80;99.90
8402;DHT22;4238;48.404;9.498;2022-12-20T02:58:33;2.00;99.90
8402;DHT22;4238;48.404;9.498;2022-12-20T03:01:06;2.30;99.90
8402;DHT22;4238;48.404;9.498;2022-12-20T03:03:35;2.80;99.90
8402;DHT22;4238;48.404;9.498;2022-12-20T03:06:03;3.20;99.90
8402;DHT22;4238;48.404;9.498;2022-12-20T03:08:30;3.40;99.90
8402;DHT22;4238;48.404;9.498;2022-12-20T03:10:57;3.50;99.90
8402;DHT22;4238;48.404;9.498;2022-12-20T03:13:24;3.60;99.90
8402;DHT22;4238;48.404;9.498;2022-12-20T03:15:51;3.60;99.90
8402;DHT22;4238;48.404;9.498;2022-12-20T03:18:19;3.50;99.90
8402;DHT22;4238;48.404;9.498;2022-12-20T03:20:47;3.30;99.90
8402;DHT22;4238;48.404;9.498;2022-12-20T03:23:14;3.20;99.90
8402;DHT22;4238;48.404;9.498;2022-12-20T03:25:40;3.20;99.90
8402;DHT22;4238;48.404;9.498;2022-12-20T03:28:07;3.20;99.90
8402;DHT22;4238;48.404;9.498;2022-12-20T03:30:34;3.00;99.90
8402;DHT22;4238;48.404;9.498;2022-12-20T03:33:01;2.90;99.90
8402;DHT22;4238;48.404;9.498;2022-12-20T03:35:29;2.80;99.90
8402;DHT22;4238;48.404;9.498;2022-12-20T03:37:56;2.70;99.90
8402;DHT22;4238;48.404;9.498;2022-12-20T03:40:23;2.70;99.90
8402;DHT22;4238;48.404;9.498;2022-12-20T03:42:50;2.70;99.90
8402;DHT22;4238;48.404;9.498;2022-12-20T03:45:17;2.70;99.90
8402;DHT22;4238;48.404;9.498;2022-12-20T03:47:44;2.70;99.90
8402;DHT22;4238;48.404;9.498;2022-12-20T03:50:11;3.20;99.90
8402;DHT22;4238;48.404;9.498;2022-12-20T03:52:39;3.40;99.90
8402;DHT22;4238;48.404;9.498;2022-12-20T03:55:07;3.50;99.90
8402;DHT22;4238;48.404;9.498;2022-12-20T03:57:37;3.50;99.90
8402;DHT22;4238;48.404;9.498;2022-12-20T04:00:05;3.60;99.90
8402;DHT22;4238;48.404;9.498;2022-12-20T04:02:32;3.50;99.90
8402;DHT22;4238;48.404;9.498;2022-12-20T04:05:02;3.40;99.90
8402;DHT22;4238;48.404;9.498;2022-12-20T04:07:29;3.20;99.90
8402;DHT22;4238;48.404;9.498;2022-12-20T04:09:57;3.20;99.90
8402;DHT22;4238;48.404;9.498;2022-12-20T04:12:24;3.00;99.90
8402;DHT22;4238;48.404;9.498;2022-12-20T04:14:51;2.90;99.90
8402;DHT22;4238;48.404;9.498;2022-12-20T04:17:17;2.80;99.90
8402;DHT22;4238;48.404;9.498;2022-12-20T04:19:44;2.80;99.90
8402;DHT22;4238;48.404;9.498;2022-12-20T04:22:11;2.80;99.90
8402;DHT22;4238;48.404;9.498;2022-12-20T04:24:38;2.70;99.90
8402;DHT22;4238;48.404;9.498;2022-12-20T04:27:06;2.60;99.90
8402;DHT22;4238;48.404;9.498;2022-12-20T04:29:33;2.50;99.90
8402;DHT22;4238;48.404;9.498;2022-12-20T04:32:00;2.50;99.90
8402;DHT22;4238;48.404;9.498;2022-12-20T04:34:27;2.40;99.90
8402;DHT22;4238;48.404;9.498;2022-12-20T04:36:54;2.40;99.90
8402;DHT22;4238;48.404;9.498;2022-12-20T04:39:21;2.30;99.90
8402;DHT22;4238;48.404;9.498;2022-12-20T04:41:48;2.20;99.90
8402;DHT22;4238;48.404;9.498;2022-12-20T04:44:16;2.30;99.90
8402;DHT22;4238;48.404;9.498;2022-12-20T04:46:43;2.20;99.90
8402;DHT22;4238;48.404;9.498;2022-12-20T04:49:10;2.30;99.90
8402;DHT22;4238;48.404;9.498;2022-12-20T04:51:37;2.40;99.90
8402;DHT22;4238;48.404;9.498;2022-12-20T04:54:04;2.40;99.90
8402;DHT22;4238;48.404;9.498;2022-12-20T04:56:30;2.30;99.90
8402;DHT22;4238;48.404;9.498;2022-12-20T04:58:58;2.20;99.90
8402;DHT22;4238;48.404;9.498;2022-12-20T05:01:26;2.10;99.90
8402;DHT22;4238;48.404;9.498;2022-12-20T05:03:53;2.20;99.90
8402;DHT22;4238;48.404;9.498;2022-12-20T05:06:20;2.20;99.90
8402;DHT22;4238;48.404;9.498;2022-12-20T05:08:47;2.10;99.90
8402;DHT22;4238;48.404;9.498;2022-12-20T05:11:15;2.10;99.90
8402;DHT22;4238;48.404;9.498;2022-12-20T05:13:42;2.20;99.90
8402;DHT22;4238;48.404;9.498;2022-12-20T05:16:08;2.20;99.90
8402;DHT22;4238;48.404;9.498;2022-12-20T05:18:37;2.10;99.90
8402;DHT22;4238;48.404;9.498;2022-12-20T05:21:04;2.00;99.90
8402;DHT22;4238;48.404;9.498;2022-12-20T05:24:03;2.00;99.90
8402;DHT22;4238;48.404;9.498;2022-12-20T05:26:48;2.20;99.90
8402;DHT22;4238;48.404;9.498;2022-12-20T05:29:14;2.20;99.90
8402;DHT22;4238;48.404;9.498;2022-12-20T05:31:42;2.20;99.90
8402;DHT22;4238;48.404;9.498;2022-12-20T05:34:10;2.20;99.90
8402;DHT22;4238;48.404;9.498;2022-12-20T05:36:37;2.20;99.90
8402;DHT22;4238;48.404;9.498;2022-12-20T05:39:04;2.20;99.90
8402;DHT22;4238;48.404;9.498;2022-12-20T05:41:31;2.20;99.90
8402;DHT22;4238;48.404;9.498;2022-12-20T05:43:58;2.20;99.90
8402;DHT22;4238;48.404;9.498;2022-12-20T05:46:25;2.10;99.90
8402;DHT22;4238;48.404;9.498;2022-12-20T05:48:52;2.10;99.90
8402;DHT22;4238;48.404;9.498;2022-12-20T05:51:20;2.00;99.90
8402;DHT22;4238;48.404;9.498;2022-12-20T05:53:47;2.10;99.90
8402;DHT22;4238;48.404;9.498;2022-12-20T05:56:14;2.20;99.90
8402;DHT22;4238;48.404;9.498;2022-12-20T05:58:41;2.00;99.90
8402;DHT22;4238;48.404;9.498;2022-12-20T06:01:08;2.10;99.90
8402;DHT22;4238;48.404;9.498;2022-12-20T06:03:36;2.10;99.90
8402;DHT22;4238;48.404;9.498;2022-12-20T06:06:03;2.00;99.90
8402;DHT22;4238;48.404;9.498;2022-12-20T06:08:31;2.10;99.90
8402;DHT22;4238;48.404;9.498;2022-12-20T06:10:58;2.10;99.90
8402;DHT22;4238;48.404;9.498;2022-12-20T06:13:26;2.10;99.90
8402;DHT22;4238;48.404;9.498;2022-12-20T06:15:53;2.10;99.90
8402;DHT22;4238;48.404;9.498;2022-12-20T06:18:20;2.10;99.90
8402;DHT22;4238;48.404;9.498;2022-12-20T06:20:49;2.00;99.90
8402;DHT22;4238;48.404;9.498;2022-12-20T06:23:16;2.00;99.90
8402;DHT22;4238;48.404;9.498;2022-12-20T06:25:44;2.00;99.90
8402;DHT22;4238;48.404;9.498;2022-12-20T06:28:11;2.10;99.90
8402;DHT22;4238;48.404;9.498;2022-12-20T06:30:38;2.00;99.90
8402;DHT22;4238;48.404;9.498;2022-12-20T06:33:05;2.10;99.90
8402;DHT22;4238;48.404;9.498;2022-12-20T06:35:32;2.10;99.90
8402;DHT22;4238;48.404;9.498;2022-12-20T06:37:59;2.10;99.90
8402;DHT22;4238;48.404;9.498;2022-12-20T06:40:26;2.10;99.90
8402;DHT22;4238;48.404;9.498;2022-12-20T06:42:54;2.10;99.90
8402;DHT22;4238;48.404;9.498;2022-12-20T06:45:21;2.10;99.90
8402;DHT22;4238;48.404;9.498;2022-12-20T06:47:48;2.20;99.90
8402;DHT22;4238;48.404;9.498;2022-12-20T06:50:14;2.20;99.90
8402;DHT22;4238;48.404;9.498;2022-12-20T06:52:41;2.30;99.90
8402;DHT22;4238;48.404;9.498;2022-12-20T06:55:08;2.40;99.90
8402;DHT22;4238;48.404;9.498;2022-12-20T06:57:35;2.40;99.90
8402;DHT22;4238;48.404;9.498;2022-12-20T07:00:05;2.40;99.90
8402;DHT22;4238;48.404;9.498;2022-12-20T07:02:33;2.50;99.90
8402;DHT22;4238;48.404;9.498;2022-12-20T07:04:59;2.60;99.90
8402;DHT22;4238;48.404;9.498;2022-12-20T07:07:26;2.60;99.90
8402;DHT22;4238;48.404;9.498;2022-12-20T07:09:53;2.70;99.90
8402;DHT22;4238;48.404;9.498;2022-12-20T07:12:21;2.80;99.90
8402;DHT22;4238;48.404;9.498;2022-12-20T07:14:48;2.90;99.90
8402;DHT22;4238;48.404;9.498;2022-12-20T07:17:17;2.90;99.90
8402;DHT22;4238;48.404;9.498;2022-12-20T07:19:44;2.80;99.90
8402;DHT22;4238;48.404;9.498;2022-12-20T07:22:12;2.70;99.90
8402;DHT22;4238;48.404;9.498;2022-12-20T07:24:38;2.70;99.90
8402;DHT22;4238;48.404;9.498;2022-12-20T07:27:05;2.70;99.90
8402;DHT22;4238;48.404;9.498;2022-12-20T07:29:32;2.70;99.90
8402;DHT22;4238;48.404;9.498;2022-12-20T07:32:00;2.70;99.90
8402;DHT22;4238;48.404;9.498;2022-12-20T07:34:29;2.60;99.90
8402;DHT22;4238;48.404;9.498;2022-12-20T07:36:55;2.70;99.90
8402;DHT22;4238;48.404;9.498;2022-12-20T07:39:23;2.70;99.90
8402;DHT22;4238;48.404;9.498;2022-12-20T07:41:52;2.70;99.90
8402;DHT22;4238;48.404;9.498;2022-12-20T07:44:19;2.60;99.90
8402;DHT22;4238;48.404;9.498;2022-12-20T07:46:46;2.60;99.90
8402;DHT22;4238;48.404;9.498;2022-12-20T07:49:13;2.70;99.90
8402;DHT22;4238;48.404;9.498;2022-12-20T07:51:44;2.70;99.90
8402;DHT22;4238;48.404;9.498;2022-12-20T07:54:14;2.80;99.90
8402;DHT22;4238;48.404;9.498;2022-12-20T07:56:44;2.80;99.90
8402;DHT22;4238;48.404;9.498;2022-12-20T07:59:14;2.90;99.90
8402;DHT22;4238;48.404;9.498;2022-12-20T08:01:43;3.00;99.90
8402;DHT22;4238;48.404;9.498;2022-12-20T08:04:13;3.00;99.90
8402;DHT22;4238;48.404;9.498;2022-12-20T08:06:42;3.10;99.90
8402;DHT22;4238;48.404;9.498;2022-12-20T08:09:10;3.10;99.90
8402;DHT22;4238;48.404;9.498;2022-12-20T08:11:39;3.20;99.90
8402;DHT22;4238;48.404;9.498;2022-12-20T08:14:08;3.20;99.90
8402;DHT22;4238;48.404;9.498;2022-12-20T08:16:35;3.30;99.90
8402;DHT22;4238;48.404;9.498;2022-12-20T08:19:02;3.40;99.90
8402;DHT22;4238;48.404;9.498;2022-12-20T08:21:29;3.50;99.90
8402;DHT22;4238;48.404;9.498;2022-12-20T08:23:58;3.70;99.90
8402;DHT22;4238;48.404;9.498;2022-12-20T08:26:25;3.80;99.90
8402;DHT22;4238;48.404;9.498;2022-12-20T08:28:53;3.90;99.90
8402;DHT22;4238;48.404;9.498;2022-12-20T08:31:20;3.90;99.90
8402;DHT22;4238;48.404;9.498;2022-12-20T08:33:47;3.90;99.90
8402;DHT22;4238;48.404;9.498;2022-12-20T08:36:14;3.90;99.90
8402;DHT22;4238;48.404;9.498;2022-12-20T08:38:41;4.00;99.90
8402;DHT22;4238;48.404;9.498;2022-12-20T08:41:11;4.00;99.90
8402;DHT22;4238;48.404;9.498;2022-12-20T08:43:39;4.00;99.90
8402;DHT22;4238;48.404;9.498;2022-12-20T08:46:07;4.00;99.90
8402;DHT22;4238;48.404;9.498;2022-12-20T08:48:34;4.10;99.90
8402;DHT22;4238;48.404;9.498;2022-12-20T08:51:03;4.10;99.90
8402;DHT22;4238;48.404;9.498;2022-12-20T08:53:31;4.20;99.90
8402;DHT22;4238;48.404;9.498;2022-12-20T08:56:03;4.30;99.90
8402;DHT22;4238;48.404;9.498;2022-12-20T08:58:33;4.40;99.90
8402;DHT22;4238;48.404;9.498;2022-12-20T09:01:00;4.40;99.90
8402;DHT22;4238;48.404;9.498;2022-12-20T09:03:30;4.50;99.90
8402;DHT22;4238;48.404;9.498;2022-12-20T09:05:58;4.60;99.90
8402;DHT22;4238;48.404;9.498;2022-12-20T09:08:25;4.50;99.90
8402;DHT22;4238;48.404;9.498;2022-12-20T09:10:52;4.50;99.90
8402;DHT22;4238;48.404;9.498;2022-12-20T09:13:19;4.70;99.90
8402;DHT22;4238;48.404;9.498;2022-12-20T09:15:48;4.70;99.90
8402;DHT22;4238;48.404;9.498;2022-12-20T09:18:15;4.80;99.90
8402;DHT22;4238;48.404;9.498;2022-12-20T09:20:42;4.70;99.90
8402;DHT22;4238;48.404;9.498;2022-12-20T09:23:11;4.80;99.90
8402;DHT22;4238;48.404;9.498;2022-12-20T09:25:37;4.90;99.90
8402;DHT22;4238;48.404;9.498;2022-12-20T09:28:05;5.00;99.90
8402;DHT22;4238;48.404;9.498;2022-12-20T09:30:32;5.00;99.90
8402;DHT22;4238;48.404;9.498;2022-12-20T09:33:00;5.00;99.90
8402;DHT22;4238;48.404;9.498;2022-12-20T09:35:27;5.10;99.90
8402;DHT22;4238;48.404;9.498;2022-12-20T09:37:54;5.20;97.90
8402;DHT22;4238;48.404;9.498;2022-12-20T09:40:24;5.20;95.80
8402;DHT22;4238;48.404;9.498;2022-12-20T09:42:52;5.30;96.10
8402;DHT22;4238;48.404;9.498;2022-12-20T09:45:24;5.60;85.80
8402;DHT22;4238;48.404;9.498;2022-12-20T09:47:51;5.70;81.90
8402;DHT22;4238;48.404;9.498;2022-12-20T09:50:27;5.90;72.70
8402;DHT22;4238;48.404;9.498;2022-12-20T09:53:08;6.00;68.10
8402;DHT22;4238;48.404;9.498;2022-12-20T09:55:41;6.20;49.60
8402;DHT22;4238;48.404;9.498;2022-12-20T09:58:23;6.30;52.10
8402;DHT22;4238;48.404;9.498;2022-12-20T10:00:53;6.30;47.90
8402;DHT22;4238;48.404;9.498;2022-12-20T10:03:22;6.40;54.10
8402;DHT22;4238;48.404;9.498;2022-12-20T10:05:52;6.40;49.80
8402;DHT22;4238;48.404;9.498;2022-12-20T10:08:28;6.50;49.70
8402;DHT22;4238;48.404;9.498;2022-12-20T10:11:04;6.50;48.00
8402;DHT22;4238;48.404;9.498;2022-12-20T10:13:43;6.40;50.40
8402;DHT22;4238;48.404;9.498;2022-12-20T10:16:27;6.40;57.80
8402;DHT22;4238;48.404;9.498;2022-12-20T10:19:02;6.40;58.60
8402;DHT22;4238;48.404;9.498;2022-12-20T10:21:41;6.30;55.50
8402;DHT22;4238;48.404;9.498;2022-12-20T10:24:16;6.30;58.10
8402;DHT22;4238;48.404;9.498;2022-12-20T10:26:44;6.30;57.40
8402;DHT22;4238;48.404;9.498;2022-12-20T10:29:11;6.20;62.00
8402;DHT22;4238;48.404;9.498;2022-12-20T10:31:38;6.10;63.90
8402;DHT22;4238;48.404;9.498;2022-12-20T10:34:05;6.20;69.60
8402;DHT22;4238;48.404;9.498;2022-12-20T10:36:36;6.20;73.30
8402;DHT22;4238;48.404;9.498;2022-12-20T10:39:05;6.10;69.50
8402;DHT22;4238;48.404;9.498;2022-12-20T10:41:46;6.10;64.90
8402;DHT22;4238;48.404;9.498;2022-12-20T10:44:19;6.10;59.60
8402;DHT22;4238;48.404;9.498;2022-12-20T10:46:51;6.00;70.30
8402;DHT22;4238;48.404;9.498;2022-12-20T10:49:28;5.90;81.90
8402;DHT22;4238;48.404;9.498;2022-12-20T10:51:59;5.80;83.70
8402;DHT22;4238;48.404;9.498;2022-12-20T10:54:33;5.90;86.70
8402;DHT22;4238;48.404;9.498;2022-12-20T10:57:01;5.90;85.60
8402;DHT22;4238;48.404;9.498;2022-12-20T10:59:32;5.90;83.30
8402;DHT22;4238;48.404;9.498;2022-12-20T11:02:00;6.00;73.10
8402;DHT22;4238;48.404;9.498;2022-12-20T11:04:30;6.00;70.60
8402;DHT22;4238;48.404;9.498;2022-12-20T11:06:59;5.90;74.60
8402;DHT22;4238;48.404;9.498;2022-12-20T11:09:29;5.70;88.20
8402;DHT22;4238;48.404;9.498;2022-12-20T11:12:02;5.70;84.60
8402;DHT22;4238;48.404;9.498;2022-12-20T11:14:30;5.70;86.60
8402;DHT22;4238;48.404;9.498;2022-12-20T11:16:59;5.60;80.40
8402;DHT22;4238;48.404;9.498;2022-12-20T11:19:37;5.60;91.20
8402;DHT22;4238;48.404;9.498;2022-12-20T11:22:19;5.70;90.00
8402;DHT22;4238;48.404;9.498;2022-12-20T11:24:58;5.70;89.20
8402;DHT22;4238;48.404;9.498;2022-12-20T11:27:30;5.70;90.50
8402;DHT22;4238;48.404;9.498;2022-12-20T11:30:08;5.70;90.80
8402;DHT22;4238;48.404;9.498;2022-12-20T11:32:46;5.70;90.40
8402;DHT22;4238;48.404;9.498;2022-12-20T11:35:19;5.70;93.30
8402;DHT22;4238;48.404;9.498;2022-12-20T11:37:57;5.60;90.50
8402;DHT22;4238;48.404;9.498;2022-12-20T11:40:30;5.60;91.20
8402;DHT22;4238;48.404;9.498;2022-12-20T11:43:25;5.60;93.50
8402;DHT22;4238;48.404;9.498;2022-12-20T11:46:06;5.60;96.50
8402;DHT22;4238;48.404;9.498;2022-12-20T11:49:02;5.50;95.20
8402;DHT22;4238;48.404;9.498;2022-12-20T11:51:36;5.60;90.90
8402;DHT22;4238;48.404;9.498;2022-12-20T11:54:11;5.60;93.50
8402;DHT22;4238;48.404;9.498;2022-12-20T11:56:42;5.70;94.10
8402;DHT22;4238;48.404;9.498;2022-12-20T11:59:15;5.80;93.70
8402;DHT22;4238;48.404;9.498;2022-12-20T12:01:49;5.80;92.70
8402;DHT22;4238;48.404;9.498;2022-12-20T12:04:20;5.70;91.40
8402;DHT22;4238;48.404;9.498;2022-12-20T12:06:51;5.80;91.80
8402;DHT22;4238;48.404;9.498;2022-12-20T12:09:25;5.80;90.20
8402;DHT22;4238;48.404;9.498;2022-12-20T12:11:59;5.60;93.30
8402;DHT22;4238;48.404;9.498;2022-12-20T12:14:38;5.50;94.60
8402;DHT22;4238;48.404;9.498;2022-12-20T12:17:12;5.60;92.30
8402;DHT22;4238;48.404;9.498;2022-12-20T12:19:47;5.60;89.90
8402;DHT22;4238;48.404;9.498;2022-12-20T12:22:21;5.50;92.80
8402;DHT22;4238;48.404;9.498;2022-12-20T12:24:53;5.30;99.90
8402;DHT22;4238;48.404;9.498;2022-12-20T12:27:24;5.40;98.70
8402;DHT22;4238;48.404;9.498;2022-12-20T12:29:51;5.40;97.00
8402;DHT22;4238;48.404;9.498;2022-12-20T12:32:24;5.50;95.50
8402;DHT22;4238;48.404;9.498;2022-12-20T12:35:06;5.40;92.40
8402;DHT22;4238;48.404;9.498;2022-12-20T12:37:54;5.50;94.90
8402;DHT22;4238;48.404;9.498;2022-12-20T12:41:01;5.50;95.50
8402;DHT22;4238;48.404;9.498;2022-12-20T12:43:44;5.40;96.40
8402;DHT22;4238;48.404;9.498;2022-12-20T12:46:15;5.40;98.90
8402;DHT22;4238;48.404;9.498;2022-12-20T12:48:45;5.40;99.90
8402;DHT22;4238;48.404;9.498;2022-12-20T12:51:16;5.40;99.90
8402;DHT22;4238;48.404;9.498;2022-12-20T12:53:49;5.50;99.90
8402;DHT22;4238;48.404;9.498;2022-12-20T12:56:39;5.50;98.80
8402;DHT22;4238;48.404;9.498;2022-12-20T12:59:19;5.40;97.10
8402;DHT22;4238;48.404;9.498;2022-12-20T13:01:48;5.30;99.90
8402;DHT22;4238;48.404;9.498;2022-12-20T13:04:26;5.30;99.30
8402;DHT22;4238;48.404;9.498;2022-12-20T13:07:03;5.30;99.80
8402;DHT22;4238;48.404;9.498;2022-12-20T13:09:49;5.30;99.90
8402;DHT22;4238;48.404;9.498;2022-12-20T13:12:57;5.40;99.20
8402;DHT22;4238;48.404;9.498;2022-12-20T13:15:49;5.50;95.10
8402;DHT22;4238;48.404;9.498;2022-12-20T13:18:29;5.50;95.50
8402;DHT22;4238;48.404;9.498;2022-12-20T13:21:16;5.50;93.30
8402;DHT22;4238;48.404;9.498;2022-12-20T13:23:44;5.50;87.90
8402;DHT22;4238;48.404;9.498;2022-12-20T13:26:41;5.50;92.90
8402;DHT22;4238;48.404;9.498;2022-12-20T13:29:22;5.50;97.40
8402;DHT22;4238;48.404;9.498;2022-12-20T13:31:50;5.60;96.90
8402;DHT22;4238;48.404;9.498;2022-12-20T13:34:35;5.60;97.30
8402;DHT22;4238;48.404;9.498;2022-12-20T13:37:02;5.80;92.80
8402;DHT22;4238;48.404;9.498;2022-12-20T13:39:31;5.70;92.30
8402;DHT22;4238;48.404;9.498;2022-12-20T13:42:31;5.70;88.80
8402;DHT22;4238;48.404;9.498;2022-12-20T13:45:03;5.60;91.20
8402;DHT22;4238;48.404;9.498;2022-12-20T13:47:35;5.60;90.30
8402;DHT22;4238;48.404;9.498;2022-12-20T13:50:30;5.50;91.60
8402;DHT22;4238;48.404;9.498;2022-12-20T13:53:00;5.40;95.30
8402;DHT22;4238;48.404;9.498;2022-12-20T13:55:36;5.40;96.00
8402;DHT22;4238;48.404;9.498;2022-12-20T13:58:11;5.20;99.20
8402;DHT22;4238;48.404;9.498;2022-12-20T14:00:40;5.30;99.20
8402;DHT22;4238;48.404;9.498;2022-12-20T14:03:22;5.20;99.90
8402;DHT22;4238;48.404;9.498;2022-12-20T14:05:54;5.30;95.40
8402;DHT22;4238;48.404;9.498;2022-12-20T14:08:25;5.40;93.40
8402;DHT22;4238;48.404;9.498;2022-12-20T14:10:53;5.30;97.60
8402;DHT22;4238;48.404;9.498;2022-12-20T14:13:21;5.30;96.50
8402;DHT22;4238;48.404;9.498;2022-12-20T14:15:50;5.30;99.60
8402;DHT22;4238;48.404;9.498;2022-12-20T14:18:19;5.40;97.20
8402;DHT22;4238;48.404;9.498;2022-12-20T14:20:48;5.50;95.20
8402;DHT22;4238;48.404;9.498;2022-12-20T14:23:18;5.70;90.80
8402;DHT22;4238;48.404;9.498;2022-12-20T14:25:47;5.60;86.20
8402;DHT22;4238;48.404;9.498;2022-12-20T14:28:21;5.60;90.50
8402;DHT22;4238;48.404;9.498;2022-12-20T14:30:51;5.60;91.10
8402;DHT22;4238;48.404;9.498;2022-12-20T14:33:19;5.60;91.20
8402;DHT22;4238;48.404;9.498;2022-12-20T14:35:49;5.50;90.00
8402;DHT22;4238;48.404;9.498;2022-12-20T14:38:21;5.40;94.00
8402;DHT22;4238;48.404;9.498;2022-12-20T14:40:48;5.40;93.30
8402;DHT22;4238;48.404;9.498;2022-12-20T14:43:19;5.40;94.20
8402;DHT22;4238;48.404;9.498;2022-12-20T14:45:50;5.30;96.30
8402;DHT22;4238;48.404;9.498;2022-12-20T14:48:31;5.40;96.10
8402;DHT22;4238;48.404;9.498;2022-12-20T14:50:58;5.60;89.40
8402;DHT22;4238;48.404;9.498;2022-12-20T14:53:26;5.70;87.10
8402;DHT22;4238;48.404;9.498;2022-12-20T14:55:54;5.70;82.10
8402;DHT22;4238;48.404;9.498;2022-12-20T14:58:23;5.70;80.60
8402;DHT22;4238;48.404;9.498;2022-12-20T15:00:58;5.60;83.60
8402;DHT22;4238;48.404;9.498;2022-12-20T15:03:26;5.40;87.40
8402;DHT22;4238;48.404;9.498;2022-12-20T15:05:54;5.20;93.30
8402;DHT22;4238;48.404;9.498;2022-12-20T15:08:23;5.00;98.00
8402;DHT22;4238;48.404;9.498;2022-12-20T15:10:57;4.90;99.90
8402;DHT22;4238;48.404;9.498;2022-12-20T15:13:29;4.90;99.90
8402;DHT22;4238;48.404;9.498;2022-12-20T15:16:02;5.00;99.90
8402;DHT22;4238;48.404;9.498;2022-12-20T15:18:30;5.00;99.90
8402;DHT22;4238;48.404;9.498;2022-12-20T15:21:00;4.90;99.90
8402;DHT22;4238;48.404;9.498;2022-12-20T15:23:29;5.00;99.90
8402;DHT22;4238;48.404;9.498;2022-12-20T15:25:56;5.20;99.90
8402;DHT22;4238;48.404;9.498;2022-12-20T15:28:25;5.30;97.40
8402;DHT22;4238;48.404;9.498;2022-12-20T15:30:53;5.30;96.30
8402;DHT22;4238;48.404;9.498;2022-12-20T15:33:23;5.30;96.40
8402;DHT22;4238;48.404;9.498;2022-12-20T15:35:51;5.30;93.30
8402;DHT22;4238;48.404;9.498;2022-12-20T15:38:19;5.20;95.60
8402;DHT22;4238;48.404;9.498;2022-12-20T15:40:49;5.20;96.50
8402;DHT22;4238;48.404;9.498;2022-12-20T15:43:19;5.30;94.10
8402;DHT22;4238;48.404;9.498;2022-12-20T15:45:49;5.30;91.50
8402;DHT22;4238;48.404;9.498;2022-12-20T15:48:19;5.40;92.30
8402;DHT22;4238;48.404;9.498;2022-12-20T15:50:51;5.30;92.40
8402;DHT22;4238;48.404;9.498;2022-12-20T15:53:22;5.10;93.50
8402;DHT22;4238;48.404;9.498;2022-12-20T15:55:50;5.00;96.70
8402;DHT22;4238;48.404;9.498;2022-12-20T15:58:17;4.90;96.90
8402;DHT22;4238;48.404;9.498;2022-12-20T16:00:44;4.90;99.90
8402;DHT22;4238;48.404;9.498;2022-12-20T16:03:17;5.00;98.00
8402;DHT22;4238;48.404;9.498;2022-12-20T16:05:46;5.00;96.80
8402;DHT22;4238;48.404;9.498;2022-12-20T16:08:14;5.00;96.60
8402;DHT22;4238;48.404;9.498;2022-12-20T16:10:43;5.10;95.90
8402;DHT22;4238;48.404;9.498;2022-12-20T16:13:15;5.20;93.60
8402;DHT22;4238;48.404;9.498;2022-12-20T16:15:43;5.30;91.20
8402;DHT22;4238;48.404;9.498;2022-12-20T16:18:10;5.40;86.80
8402;DHT22;4238;48.404;9.498;2022-12-20T16:20:37;5.30;86.50
8402;DHT22;4238;48.404;9.498;2022-12-20T16:23:07;5.30;87.60
8402;DHT22;4238;48.404;9.498;2022-12-20T16:25:38;5.20;90.10
8402;DHT22;4238;48.404;9.498;2022-12-20T16:28:05;5.10;91.00
8402;DHT22;4238;48.404;9.498;2022-12-20T16:30:32;5.00;94.40
8402;DHT22;4238;48.404;9.498;2022-12-20T16:32:59;4.90;97.00
8402;DHT22;4238;48.404;9.498;2022-12-20T16:35:28;4.80;99.30
8402;DHT22;4238;48.404;9.498;2022-12-20T16:37:57;4.70;99.90